sensor_id;sensor_type;location;lat;lon;timestamp;temperature;humidity
65419;DHT22;52027;50.658;14.004;2022-12-10T00:00:19;21.96;37.13
65419;DHT22;52027;50.658;14.004;2022-12-10T00:02:44;21.94;37.22
65419;DHT22;52027;50.658;14.004;2022-12-10T00:05:10;21.94;37.16
65419;DHT22;52027;50.658;14.004;2022-12-10T00:07:35;21.93;37.13
65419;DHT22;52027;50.658;14.004;2022-12-10T00:10:00;21.93;37.17
65419;DHT22;52027;50.658;14.004;2022-12-10T00:12:25;21.93;37.20
65419;DHT22;52027;50.658;14.004;2022-12-10T00:14:51;21.92;37.17
65419;DHT22;52027;50.658;14.004;2022-12-10T00:17:16;21.92;37.20
65419;DHT22;52027;50.658;14.004;2022-12-10T00:19:42;21.92;37.17
65419;DHT22;52027;50.658;14.004;2022-12-10T00:22:07;21.90;37.14
65419;DHT22;52027;50.658;14.004;2022-12-10T00:24:32;21.92;37.17
65419;DHT22;52027;50.658;14.004;2022-12-10T00:26:58;21.92;37.19
65419;DHT22;52027;50.658;14.004;2022-12-10T00:29:23;21.90;37.17
65419;DHT22;52027;50.658;14.004;2022-12-10T00:31:48;21.92;37.11
65419;DHT22;52027;50.658;14.004;2022-12-10T00:34:14;21.92;37.12
65419;DHT22;52027;50.658;14.004;2022-12-10T00:36:43;21.90;37.13
65419;DHT22;52027;50.658;14.004;2022-12-10T00:39:11;21.92;37.13
65419;DHT22;52027;50.658;14.004;2022-12-10T00:41:36;21.93;37.09
65419;DHT22;52027;50.658;14.004;2022-12-10T00:44:01;21.90;37.14
65419;DHT22;52027;50.658;14.004;2022-12-10T00:46:27;21.92;37.08
65419;DHT22;52027;50.658;14.004;2022-12-10T00:48:53;21.92;37.10
65419;DHT22;52027;50.658;14.004;2022-12-10T00:51:21;21.90;37.11
65419;DHT22;52027;50.658;14.004;2022-12-10T00:53:47;21.90;37.08
65419;DHT22;52027;50.658;14.004;2022-12-10T00:56:14;21.90;37.04
65419;DHT22;52027;50.658;14.004;2022-12-10T00:58:40;21.89;37.05
65419;DHT22;52027;50.658;14.004;2022-12-10T01:01:16;21.92;37.03
65419;DHT22;52027;50.658;14.004;2022-12-10T01:03:43;21.90;37.08
65419;DHT22;52027;50.658;14.004;2022-12-10T01:06:21;21.90;37.04
65419;DHT22;52027;50.658;14.004;2022-12-10T01:08:47;21.89;36.98
65419;DHT22;52027;50.658;14.004;2022-12-10T01:11:15;21.89;37.01
65419;DHT22;52027;50.658;14.004;2022-12-10T01:13:42;21.89;37.02
65419;DHT22;52027;50.658;14.004;2022-12-10T01:16:09;21.90;36.99
65419;DHT22;52027;50.658;14.004;2022-12-10T01:18:35;21.89;37.01
65419;DHT22;52027;50.658;14.004;2022-12-10T01:21:12;21.90;36.98
65419;DHT22;52027;50.658;14.004;2022-12-10T01:23:39;21.89;37.01
65419;DHT22;52027;50.658;14.004;2022-12-10T01:26:08;21.92;36.92
65419;DHT22;52027;50.658;14.004;2022-12-10T01:28:35;21.90;36.99
65419;DHT22;52027;50.658;14.004;2022-12-10T01:31:09;21.90;36.98
65419;DHT22;52027;50.658;14.004;2022-12-10T01:33:36;21.88;36.99
65419;DHT22;52027;50.658;14.004;2022-12-10T01:36:08;21.89;36.97
65419;DHT22;52027;50.658;14.004;2022-12-10T01:38:34;21.89;36.96
65419;DHT22;52027;50.658;14.004;2022-12-10T01:41:00;21.89;36.99
65419;DHT22;52027;50.658;14.004;2022-12-10T01:43:26;21.88;36.97
65419;DHT22;52027;50.658;14.004;2022-12-10T01:45:52;21.88;36.94
65419;DHT22;52027;50.658;14.004;2022-12-10T01:48:18;21.86;36.99
65419;DHT22;52027;50.658;14.004;2022-12-10T01:50:43;21.85;36.95
65419;DHT22;52027;50.658;14.004;2022-12-10T01:53:09;21.86;36.92
65419;DHT22;52027;50.658;14.004;2022-12-10T01:58:06;21.88;36.89
65419;DHT22;52027;50.658;14.004;2022-12-10T02:00:34;21.85;36.95
65419;DHT22;52027;50.658;14.004;2022-12-10T02:03:10;21.88;36.93
65419;DHT22;52027;50.658;14.004;2022-12-10T02:05:46;21.86;36.99
65419;DHT22;52027;50.658;14.004;2022-12-10T02:08:31;21.88;36.89
65419;DHT22;52027;50.658;14.004;2022-12-10T02:13:41;21.89;36.93
65419;DHT22;52027;50.658;14.004;2022-12-10T02:16:19;21.85;36.89
65419;DHT22;52027;50.658;14.004;2022-12-10T02:18:55;21.85;36.86
65419;DHT22;52027;50.658;14.004;2022-12-10T02:21:41;21.85;36.86
65419;DHT22;52027;50.658;14.004;2022-12-10T02:24:10;21.85;36.87
65419;DHT22;52027;50.658;14.004;2022-12-10T02:27:04;21.83;36.90
65419;DHT22;52027;50.658;14.004;2022-12-10T02:29:32;21.88;36.87
65419;DHT22;52027;50.658;14.004;2022-12-10T02:32:07;21.85;36.80
65419;DHT22;52027;50.658;14.004;2022-12-10T02:34:37;21.86;36.83
65419;DHT22;52027;50.658;14.004;2022-12-10T02:37:07;21.82;36.85
65419;DHT22;52027;50.658;14.004;2022-12-10T02:39:38;21.85;36.86
65419;DHT22;52027;50.658;14.004;2022-12-10T02:42:07;21.85;36.78
65419;DHT22;52027;50.658;14.004;2022-12-10T02:44:36;21.83;36.84
65419;DHT22;52027;50.658;14.004;2022-12-10T02:47:03;21.82;36.84
65419;DHT22;52027;50.658;14.004;2022-12-10T02:49:29;21.85;36.84
65419;DHT22;52027;50.658;14.004;2022-12-10T02:51:55;21.85;36.84
65419;DHT22;52027;50.658;14.004;2022-12-10T02:54:41;21.85;36.83
65419;DHT22;52027;50.658;14.004;2022-12-10T03:00:08;21.85;36.83
65419;DHT22;52027;50.658;14.004;2022-12-10T03:07:56;21.85;36.83
65419;DHT22;52027;50.658;14.004;2022-12-10T03:10:27;21.85;36.77
65419;DHT22;52027;50.658;14.004;2022-12-10T03:12:59;21.83;36.79
65419;DHT22;52027;50.658;14.004;2022-12-10T03:15:27;21.83;36.78
65419;DHT22;52027;50.658;14.004;2022-12-10T03:17:56;21.82;36.79
65419;DHT22;52027;50.658;14.004;2022-12-10T03:20:23;21.85;36.77
65419;DHT22;52027;50.658;14.004;2022-12-10T03:22:49;21.83;36.74
65419;DHT22;52027;50.658;14.004;2022-12-10T03:25:19;21.82;36.78
65419;DHT22;52027;50.658;14.004;2022-12-10T03:27:48;21.80;36.79
65419;DHT22;52027;50.658;14.004;2022-12-10T03:30:17;21.82;36.72
65419;DHT22;52027;50.658;14.004;2022-12-10T03:32:44;21.82;36.75
65419;DHT22;52027;50.658;14.004;2022-12-10T03:35:11;21.79;36.72
65419;DHT22;52027;50.658;14.004;2022-12-10T03:37:37;21.82;36.71
65419;DHT22;52027;50.658;14.004;2022-12-10T03:40:04;21.80;36.77
65419;DHT22;52027;50.658;14.004;2022-12-10T03:42:30;21.82;36.74
65419;DHT22;52027;50.658;14.004;2022-12-10T03:44:55;21.80;36.77
65419;DHT22;52027;50.658;14.004;2022-12-10T03:47:21;21.79;36.70
65419;DHT22;52027;50.658;14.004;2022-12-10T03:49:47;21.80;36.78
65419;DHT22;52027;50.658;14.004;2022-12-10T03:52:12;21.80;36.72
65419;DHT22;52027;50.658;14.004;2022-12-10T03:54:38;21.78;36.72
65419;DHT22;52027;50.658;14.004;2022-12-10T03:57:03;21.79;36.71
65419;DHT22;52027;50.658;14.004;2022-12-10T03:59:28;21.80;36.72
65419;DHT22;52027;50.658;14.004;2022-12-10T04:01:54;21.79;36.72
65419;DHT22;52027;50.658;14.004;2022-12-10T04:04:19;21.80;36.66
65419;DHT22;52027;50.658;14.004;2022-12-10T04:06:45;21.78;36.71
65419;DHT22;52027;50.658;14.004;2022-12-10T04:09:12;21.78;36.69
65419;DHT22;52027;50.658;14.004;2022-12-10T04:11:38;21.79;36.67
65419;DHT22;52027;50.658;14.004;2022-12-10T04:14:04;21.79;36.66
65419;DHT22;52027;50.658;14.004;2022-12-10T04:16:47;21.79;36.68
65419;DHT22;52027;50.658;14.004;2022-12-10T04:19:16;21.78;36.65
65419;DHT22;52027;50.658;14.004;2022-12-10T04:21:43;21.80;36.66
65419;DHT22;52027;50.658;14.004;2022-12-10T04:24:29;21.79;36.66
65419;DHT22;52027;50.658;14.004;2022-12-10T04:27:17;21.78;36.69
65419;DHT22;52027;50.658;14.004;2022-12-10T04:29:43;21.75;36.66
65419;DHT22;52027;50.658;14.004;2022-12-10T04:32:09;21.79;36.66
65419;DHT22;52027;50.658;14.004;2022-12-10T04:34:34;21.76;36.63
65419;DHT22;52027;50.658;14.004;2022-12-10T04:37:01;21.78;36.70
65419;DHT22;52027;50.658;14.004;2022-12-10T04:39:27;21.75;36.69
65419;DHT22;52027;50.658;14.004;2022-12-10T04:41:52;21.78;36.62
65419;DHT22;52027;50.658;14.004;2022-12-10T04:44:18;21.76;36.64
65419;DHT22;52027;50.658;14.004;2022-12-10T04:46:45;21.75;36.65
65419;DHT22;52027;50.658;14.004;2022-12-10T04:49:10;21.78;36.65
65419;DHT22;52027;50.658;14.004;2022-12-10T04:51:36;21.75;36.59
65419;DHT22;52027;50.658;14.004;2022-12-10T04:54:01;21.78;36.66
65419;DHT22;52027;50.658;14.004;2022-12-10T04:56:27;21.76;36.63
65419;DHT22;52027;50.658;14.004;2022-12-10T04:58:55;21.76;36.62
65419;DHT22;52027;50.658;14.004;2022-12-10T05:01:20;21.78;36.60
65419;DHT22;52027;50.658;14.004;2022-12-10T05:03:45;21.76;36.60
65419;DHT22;52027;50.658;14.004;2022-12-10T05:06:12;21.76;36.56
65419;DHT22;52027;50.658;14.004;2022-12-10T05:08:39;21.78;36.53
65419;DHT22;52027;50.658;14.004;2022-12-10T05:11:08;21.79;36.57
65419;DHT22;52027;50.658;14.004;2022-12-10T05:13:34;21.78;36.54
65419;DHT22;52027;50.658;14.004;2022-12-10T05:16:04;21.79;36.54
65419;DHT22;52027;50.658;14.004;2022-12-10T05:18:29;21.79;36.50
65419;DHT22;52027;50.658;14.004;2022-12-10T05:20:58;21.78;36.47
65419;DHT22;52027;50.658;14.004;2022-12-10T05:23:23;21.80;36.50
65419;DHT22;52027;50.658;14.004;2022-12-10T05:28:23;21.80;36.49
65419;DHT22;52027;50.658;14.004;2022-12-10T05:30:48;21.79;36.49
65419;DHT22;52027;50.658;14.004;2022-12-10T05:33:14;21.82;36.49
65419;DHT22;52027;50.658;14.004;2022-12-10T05:35:40;21.80;36.47
65419;DHT22;52027;50.658;14.004;2022-12-10T05:38:05;21.82;36.47
65419;DHT22;52027;50.658;14.004;2022-12-10T05:40:35;21.80;36.47
65419;DHT22;52027;50.658;14.004;2022-12-10T05:43:01;21.79;36.53
65419;DHT22;52027;50.658;14.004;2022-12-10T05:45:26;21.82;36.42
65419;DHT22;52027;50.658;14.004;2022-12-10T05:47:51;21.83;36.43
65419;DHT22;52027;50.658;14.004;2022-12-10T05:50:17;21.80;36.40
65419;DHT22;52027;50.658;14.004;2022-12-10T05:52:42;21.78;36.40
65419;DHT22;52027;50.658;14.004;2022-12-10T05:55:08;21.82;36.43
65419;DHT22;52027;50.658;14.004;2022-12-10T05:57:36;21.83;36.43
65419;DHT22;52027;50.658;14.004;2022-12-10T06:00:03;21.82;36.40
65419;DHT22;52027;50.658;14.004;2022-12-10T06:02:32;21.83;36.38
65419;DHT22;52027;50.658;14.004;2022-12-10T06:04:57;21.83;36.37
65419;DHT22;52027;50.658;14.004;2022-12-10T06:07:22;21.83;36.41
65419;DHT22;52027;50.658;14.004;2022-12-10T06:09:48;21.85;36.36
65419;DHT22;52027;50.658;14.004;2022-12-10T06:12:13;21.85;36.39
65419;DHT22;52027;50.658;14.004;2022-12-10T06:14:38;21.83;36.40
65419;DHT22;52027;50.658;14.004;2022-12-10T06:17:04;21.83;36.41
65419;DHT22;52027;50.658;14.004;2022-12-10T06:19:29;21.85;36.36
65419;DHT22;52027;50.658;14.004;2022-12-10T06:21:54;21.83;36.33
65419;DHT22;52027;50.658;14.004;2022-12-10T06:24:20;21.83;36.39
65419;DHT22;52027;50.658;14.004;2022-12-10T06:26:45;21.82;36.36
65419;DHT22;52027;50.658;14.004;2022-12-10T06:29:10;21.83;36.36
65419;DHT22;52027;50.658;14.004;2022-12-10T06:31:35;21.83;36.36
65419;DHT22;52027;50.658;14.004;2022-12-10T06:34:01;21.83;36.39
65419;DHT22;52027;50.658;14.004;2022-12-10T06:36:26;21.83;36.39
65419;DHT22;52027;50.658;14.004;2022-12-10T06:38:52;21.82;36.37
65419;DHT22;52027;50.658;14.004;2022-12-10T06:41:18;21.83;36.31
65419;DHT22;52027;50.658;14.004;2022-12-10T06:43:45;21.83;36.35
65419;DHT22;52027;50.658;14.004;2022-12-10T06:46:13;21.83;36.30
65419;DHT22;52027;50.658;14.004;2022-12-10T06:48:40;21.82;36.31
65419;DHT22;52027;50.658;14.004;2022-12-10T06:51:06;21.83;36.33
65419;DHT22;52027;50.658;14.004;2022-12-10T06:53:33;21.82;36.30
65419;DHT22;52027;50.658;14.004;2022-12-10T06:56:00;21.83;36.29
65419;DHT22;52027;50.658;14.004;2022-12-10T06:58:28;21.82;36.33
65419;DHT22;52027;50.658;14.004;2022-12-10T07:00:54;21.83;36.29
65419;DHT22;52027;50.658;14.004;2022-12-10T07:03:20;21.83;36.30
65419;DHT22;52027;50.658;14.004;2022-12-10T07:05:45;21.82;36.26
65419;DHT22;52027;50.658;14.004;2022-12-10T07:08:10;21.82;36.27
65419;DHT22;52027;50.658;14.004;2022-12-10T07:10:38;21.82;36.26
65419;DHT22;52027;50.658;14.004;2022-12-10T07:13:03;21.82;36.29
65419;DHT22;52027;50.658;14.004;2022-12-10T07:15:31;21.83;36.30
65419;DHT22;52027;50.658;14.004;2022-12-10T07:17:56;21.82;36.26
65419;DHT22;52027;50.658;14.004;2022-12-10T07:20:21;21.82;36.30
65419;DHT22;52027;50.658;14.004;2022-12-10T07:22:47;21.85;36.25
65419;DHT22;52027;50.658;14.004;2022-12-10T07:25:12;21.82;36.23
65419;DHT22;52027;50.658;14.004;2022-12-10T07:27:37;21.82;36.27
65419;DHT22;52027;50.658;14.004;2022-12-10T07:30:03;21.83;36.22
65419;DHT22;52027;50.658;14.004;2022-12-10T07:32:28;21.83;36.23
65419;DHT22;52027;50.658;14.004;2022-12-10T07:34:53;21.85;36.23
65419;DHT22;52027;50.658;14.004;2022-12-10T07:37:19;21.82;36.20
65419;DHT22;52027;50.658;14.004;2022-12-10T07:39:44;21.83;36.26
65419;DHT22;52027;50.658;14.004;2022-12-10T07:42:09;21.82;36.25
65419;DHT22;52027;50.658;14.004;2022-12-10T07:44:35;21.83;36.24
65419;DHT22;52027;50.658;14.004;2022-12-10T07:47:00;21.85;36.26
65419;DHT22;52027;50.658;14.004;2022-12-10T07:49:25;21.83;36.27
65419;DHT22;52027;50.658;14.004;2022-12-10T07:51:51;21.83;36.27
65419;DHT22;52027;50.658;14.004;2022-12-10T07:54:17;21.83;36.27
65419;DHT22;52027;50.658;14.004;2022-12-10T07:56:43;21.82;36.25
65419;DHT22;52027;50.658;14.004;2022-12-10T07:59:08;21.80;36.23
65419;DHT22;52027;50.658;14.004;2022-12-10T08:01:34;21.83;36.27
65419;DHT22;52027;50.658;14.004;2022-12-10T08:03:59;21.82;36.19
65419;DHT22;52027;50.658;14.004;2022-12-10T08:06:27;21.80;36.25
65419;DHT22;52027;50.658;14.004;2022-12-10T08:08:52;21.82;36.24
65419;DHT22;52027;50.658;14.004;2022-12-10T08:11:20;21.83;36.20
65419;DHT22;52027;50.658;14.004;2022-12-10T08:13:46;21.82;36.19
65419;DHT22;52027;50.658;14.004;2022-12-10T08:16:19;21.80;36.17
65419;DHT22;52027;50.658;14.004;2022-12-10T08:18:46;21.80;36.20
65419;DHT22;52027;50.658;14.004;2022-12-10T08:21:17;21.80;36.19
65419;DHT22;52027;50.658;14.004;2022-12-10T08:23:43;21.79;36.21
65419;DHT22;52027;50.658;14.004;2022-12-10T08:26:11;21.79;36.17
65419;DHT22;52027;50.658;14.004;2022-12-10T08:28:38;21.80;36.18
65419;DHT22;52027;50.658;14.004;2022-12-10T08:31:04;21.82;36.24
65419;DHT22;52027;50.658;14.004;2022-12-10T08:33:33;21.79;36.20
65419;DHT22;52027;50.658;14.004;2022-12-10T08:35:59;21.79;36.18
65419;DHT22;52027;50.658;14.004;2022-12-10T08:38:25;21.80;36.17
65419;DHT22;52027;50.658;14.004;2022-12-10T08:40:50;21.78;36.19
65419;DHT22;52027;50.658;14.004;2022-12-10T08:43:16;21.79;36.20
65419;DHT22;52027;50.658;14.004;2022-12-10T08:45:41;21.79;36.21
65419;DHT22;52027;50.658;14.004;2022-12-10T08:48:06;21.79;36.16
65419;DHT22;52027;50.658;14.004;2022-12-10T08:50:32;21.79;36.15
65419;DHT22;52027;50.658;14.004;2022-12-10T08:52:57;21.76;36.16
65419;DHT22;52027;50.658;14.004;2022-12-10T08:55:22;21.79;36.16
65419;DHT22;52027;50.658;14.004;2022-12-10T08:57:48;21.78;36.12
65419;DHT22;52027;50.658;14.004;2022-12-10T09:00:13;21.79;36.15
65419;DHT22;52027;50.658;14.004;2022-12-10T09:02:39;21.79;36.16
65419;DHT22;52027;50.658;14.004;2022-12-10T09:05:05;21.80;36.19
65419;DHT22;52027;50.658;14.004;2022-12-10T09:07:31;21.79;36.18
65419;DHT22;52027;50.658;14.004;2022-12-10T09:09:56;21.76;36.14
65419;DHT22;52027;50.658;14.004;2022-12-10T09:12:23;21.79;36.11
65419;DHT22;52027;50.658;14.004;2022-12-10T09:14:48;21.78;36.09
65419;DHT22;52027;50.658;14.004;2022-12-10T09:17:13;21.78;36.09
65419;DHT22;52027;50.658;14.004;2022-12-10T09:19:38;21.78;36.14
65419;DHT22;52027;50.658;14.004;2022-12-10T09:22:04;21.78;36.15
65419;DHT22;52027;50.658;14.004;2022-12-10T09:24:29;21.78;36.19
65419;DHT22;52027;50.658;14.004;2022-12-10T09:26:54;21.76;36.15
65419;DHT22;52027;50.658;14.004;2022-12-10T09:29:20;21.78;36.10
65419;DHT22;52027;50.658;14.004;2022-12-10T09:31:50;21.76;36.14
65419;DHT22;52027;50.658;14.004;2022-12-10T09:34:15;21.78;36.15
65419;DHT22;52027;50.658;14.004;2022-12-10T09:36:41;21.76;36.10
65419;DHT22;52027;50.658;14.004;2022-12-10T09:39:06;21.73;36.13
65419;DHT22;52027;50.658;14.004;2022-12-10T09:47:04;21.72;36.20
65419;DHT22;52027;50.658;14.004;2022-12-10T09:52:31;21.73;36.22
65419;DHT22;52027;50.658;14.004;2022-12-10T09:55:00;21.72;36.19
65419;DHT22;52027;50.658;14.004;2022-12-10T09:57:31;21.69;36.21
65419;DHT22;52027;50.658;14.004;2022-12-10T10:00:35;21.71;36.22
65419;DHT22;52027;50.658;14.004;2022-12-10T10:03:02;21.71;36.17
65419;DHT22;52027;50.658;14.004;2022-12-10T10:05:35;21.69;36.19
65419;DHT22;52027;50.658;14.004;2022-12-10T10:08:05;21.66;36.20
65419;DHT22;52027;50.658;14.004;2022-12-10T10:10:33;21.71;36.17
65419;DHT22;52027;50.658;14.004;2022-12-10T10:15:37;21.71;36.19
65419;DHT22;52027;50.658;14.004;2022-12-10T10:20:39;21.71;36.19
65419;DHT22;52027;50.658;14.004;2022-12-10T10:23:04;21.69;36.16
65419;DHT22;52027;50.658;14.004;2022-12-10T10:25:30;21.67;36.13
65419;DHT22;52027;50.658;14.004;2022-12-10T10:27:56;21.69;36.12
65419;DHT22;52027;50.658;14.004;2022-12-10T10:30:23;21.67;36.19
65419;DHT22;52027;50.658;14.004;2022-12-10T10:32:54;21.69;36.19
65419;DHT22;52027;50.658;14.004;2022-12-10T10:35:24;21.67;36.17
65419;DHT22;52027;50.658;14.004;2022-12-10T10:37:50;21.67;36.16
65419;DHT22;52027;50.658;14.004;2022-12-10T10:40:26;21.67;36.11
65419;DHT22;52027;50.658;14.004;2022-12-10T10:42:53;21.67;36.15
65419;DHT22;52027;50.658;14.004;2022-12-10T10:48:05;21.65;36.14
65419;DHT22;52027;50.658;14.004;2022-12-10T10:50:40;21.66;36.23
65419;DHT22;52027;50.658;14.004;2022-12-10T10:53:19;21.63;36.20
65419;DHT22;52027;50.658;14.004;2022-12-10T10:55:45;21.63;36.19
65419;DHT22;52027;50.658;14.004;2022-12-10T10:58:20;21.63;36.21
65419;DHT22;52027;50.658;14.004;2022-12-10T11:00:57;21.63;36.21
65419;DHT22;52027;50.658;14.004;2022-12-10T11:03:24;21.61;36.19
65419;DHT22;52027;50.658;14.004;2022-12-10T11:05:49;21.59;36.18
65419;DHT22;52027;50.658;14.004;2022-12-10T11:08:19;21.62;36.15
65419;DHT22;52027;50.658;14.004;2022-12-10T11:10:50;21.65;36.17
65419;DHT22;52027;50.658;14.004;2022-12-10T11:13:27;21.63;36.17
65419;DHT22;52027;50.658;14.004;2022-12-10T11:18:43;21.65;36.13
65419;DHT22;52027;50.658;14.004;2022-12-10T11:21:18;21.65;36.09
65419;DHT22;52027;50.658;14.004;2022-12-10T11:23:48;21.63;36.15
65419;DHT22;52027;50.658;14.004;2022-12-10T11:26:48;21.63;36.14
65419;DHT22;52027;50.658;14.004;2022-12-10T11:32:06;21.65;36.15
65419;DHT22;52027;50.658;14.004;2022-12-10T11:51:40;21.67;36.00
65419;DHT22;52027;50.658;14.004;2022-12-10T11:56:48;21.66;36.00
65419;DHT22;52027;50.658;14.004;2022-12-10T12:04:42;21.69;35.98
65419;DHT22;52027;50.658;14.004;2022-12-10T12:07:49;21.72;35.96
65419;DHT22;52027;50.658;14.004;2022-12-10T12:16:26;21.78;35.89
65419;DHT22;52027;50.658;14.004;2022-12-10T12:21:21;21.79;35.82
65419;DHT22;52027;50.658;14.004;2022-12-10T12:26:38;21.85;35.81
65419;DHT22;52027;50.658;14.004;2022-12-10T12:32:36;21.80;35.80
65419;DHT22;52027;50.658;14.004;2022-12-10T12:41:09;21.82;35.79
65419;DHT22;52027;50.658;14.004;2022-12-10T12:46:04;21.83;35.75
65419;DHT22;52027;50.658;14.004;2022-12-10T12:48:36;21.79;35.72
65419;DHT22;52027;50.658;14.004;2022-12-10T12:53:29;21.80;35.75
65419;DHT22;52027;50.658;14.004;2022-12-10T13:02:15;21.80;35.82
65419;DHT22;52027;50.658;14.004;2022-12-10T13:04:42;21.78;35.73
65419;DHT22;52027;50.658;14.004;2022-12-10T13:09:47;21.79;35.76
65419;DHT22;52027;50.658;14.004;2022-12-10T13:12:30;21.76;35.79
65419;DHT22;52027;50.658;14.004;2022-12-10T13:15:11;21.78;35.76
65419;DHT22;52027;50.658;14.004;2022-12-10T13:17:39;21.78;35.76
65419;DHT22;52027;50.658;14.004;2022-12-10T13:25:41;21.73;35.80
65419;DHT22;52027;50.658;14.004;2022-12-10T13:28:26;21.73;35.80
65419;DHT22;52027;50.658;14.004;2022-12-10T13:41:31;21.69;35.87
65419;DHT22;52027;50.658;14.004;2022-12-10T13:44:47;21.66;35.94
65419;DHT22;52027;50.658;14.004;2022-12-10T13:49:54;21.63;35.95
65419;DHT22;52027;50.658;14.004;2022-12-10T13:55:18;21.65;35.93
65419;DHT22;52027;50.658;14.004;2022-12-10T13:58:03;21.65;35.98
65419;DHT22;52027;50.658;14.004;2022-12-10T14:00:39;21.61;35.99
65419;DHT22;52027;50.658;14.004;2022-12-10T14:03:16;21.63;35.99
65419;DHT22;52027;50.658;14.004;2022-12-10T14:06:03;21.61;35.98
65419;DHT22;52027;50.658;14.004;2022-12-10T14:08:34;21.59;35.94
65419;DHT22;52027;50.658;14.004;2022-12-10T14:11:01;21.58;35.97
65419;DHT22;52027;50.658;14.004;2022-12-10T14:13:40;21.56;35.97
65419;DHT22;52027;50.658;14.004;2022-12-10T14:16:11;21.56;36.03
65419;DHT22;52027;50.658;14.004;2022-12-10T14:18:37;21.55;36.03
65419;DHT22;52027;50.658;14.004;2022-12-10T14:21:05;21.55;36.07
65419;DHT22;52027;50.658;14.004;2022-12-10T14:23:33;21.52;36.01
65419;DHT22;52027;50.658;14.004;2022-12-10T14:26:14;21.55;36.04
65419;DHT22;52027;50.658;14.004;2022-12-10T14:28:45;21.53;36.03
65419;DHT22;52027;50.658;14.004;2022-12-10T14:31:26;21.52;36.05
65419;DHT22;52027;50.658;14.004;2022-12-10T14:33:56;21.49;36.02
65419;DHT22;52027;50.658;14.004;2022-12-10T14:36:28;21.51;36.10
65419;DHT22;52027;50.658;14.004;2022-12-10T14:38:54;21.51;36.10
65419;DHT22;52027;50.658;14.004;2022-12-10T14:41:21;21.48;36.08
65419;DHT22;52027;50.658;14.004;2022-12-10T14:43:48;21.49;36.12
65419;DHT22;52027;50.658;14.004;2022-12-10T14:46:17;21.46;36.11
65419;DHT22;52027;50.658;14.004;2022-12-10T14:48:45;21.44;36.09
65419;DHT22;52027;50.658;14.004;2022-12-10T14:51:14;21.46;36.10
65419;DHT22;52027;50.658;14.004;2022-12-10T14:53:40;21.46;36.12
65419;DHT22;52027;50.658;14.004;2022-12-10T14:56:07;21.45;36.13
65419;DHT22;52027;50.658;14.004;2022-12-10T14:58:40;21.46;36.09
65419;DHT22;52027;50.658;14.004;2022-12-10T15:01:14;21.44;36.13
65419;DHT22;52027;50.658;14.004;2022-12-10T15:03:45;21.46;36.13
65419;DHT22;52027;50.658;14.004;2022-12-10T15:06:16;21.42;36.12
65419;DHT22;52027;50.658;14.004;2022-12-10T15:08:42;21.42;36.19
65419;DHT22;52027;50.658;14.004;2022-12-10T15:11:14;21.41;36.10
65419;DHT22;52027;50.658;14.004;2022-12-10T15:13:43;21.41;36.16
65419;DHT22;52027;50.658;14.004;2022-12-10T15:16:17;21.39;36.16
65419;DHT22;52027;50.658;14.004;2022-12-10T15:18:43;21.39;36.14
65419;DHT22;52027;50.658;14.004;2022-12-10T15:21:14;21.38;36.14
65419;DHT22;52027;50.658;14.004;2022-12-10T15:23:41;21.37;36.21
65419;DHT22;52027;50.658;14.004;2022-12-10T15:26:27;21.37;36.21
65419;DHT22;52027;50.658;14.004;2022-12-10T15:31:47;21.35;36.21
65419;DHT22;52027;50.658;14.004;2022-12-10T15:34:13;21.35;36.16
65419;DHT22;52027;50.658;14.004;2022-12-10T15:36:50;21.34;36.16
65419;DHT22;52027;50.658;14.004;2022-12-10T15:39:18;21.34;36.24
65419;DHT22;52027;50.658;14.004;2022-12-10T15:41:55;21.34;36.18
65419;DHT22;52027;50.658;14.004;2022-12-10T15:49:30;21.31;36.22
65419;DHT22;52027;50.658;14.004;2022-12-10T15:51:56;21.28;36.22
65419;DHT22;52027;50.658;14.004;2022-12-10T15:54:31;21.28;36.22
65419;DHT22;52027;50.658;14.004;2022-12-10T15:56:57;21.27;36.25
65419;DHT22;52027;50.658;14.004;2022-12-10T15:59:22;21.25;36.29
65419;DHT22;52027;50.658;14.004;2022-12-10T16:01:47;21.21;36.29
65419;DHT22;52027;50.658;14.004;2022-12-10T16:04:13;21.27;36.32
65419;DHT22;52027;50.658;14.004;2022-12-10T16:06:39;21.25;36.32
65419;DHT22;52027;50.658;14.004;2022-12-10T16:09:04;21.25;36.27
65419;DHT22;52027;50.658;14.004;2022-12-10T16:11:30;21.27;36.23
65419;DHT22;52027;50.658;14.004;2022-12-10T16:13:56;21.25;36.21
65419;DHT22;52027;50.658;14.004;2022-12-10T16:16:22;21.24;36.23
65419;DHT22;52027;50.658;14.004;2022-12-10T16:18:48;21.25;36.25
65419;DHT22;52027;50.658;14.004;2022-12-10T16:21:14;21.27;36.27
65419;DHT22;52027;50.658;14.004;2022-12-10T16:23:39;21.23;36.25
65419;DHT22;52027;50.658;14.004;2022-12-10T16:26:16;21.23;36.27
65419;DHT22;52027;50.658;14.004;2022-12-10T16:28:43;21.24;36.25
65419;DHT22;52027;50.658;14.004;2022-12-10T16:31:11;21.25;36.22
65419;DHT22;52027;50.658;14.004;2022-12-10T16:33:36;21.25;36.20
65419;DHT22;52027;50.658;14.004;2022-12-10T16:36:02;21.24;36.21
65419;DHT22;52027;50.658;14.004;2022-12-10T16:38:27;21.24;36.30
65419;DHT22;52027;50.658;14.004;2022-12-10T16:40:53;21.24;36.22
65419;DHT22;52027;50.658;14.004;2022-12-10T16:43:21;21.27;36.25
65419;DHT22;52027;50.658;14.004;2022-12-10T16:45:47;21.24;36.26
65419;DHT22;52027;50.658;14.004;2022-12-10T16:48:13;21.24;36.20
65419;DHT22;52027;50.658;14.004;2022-12-10T16:50:39;21.24;36.19
65419;DHT22;52027;50.658;14.004;2022-12-10T16:55:43;21.24;36.21
65419;DHT22;52027;50.658;14.004;2022-12-10T16:58:10;21.24;36.16
65419;DHT22;52027;50.658;14.004;2022-12-10T17:00:36;21.24;36.17
65419;DHT22;52027;50.658;14.004;2022-12-10T17:03:02;21.24;36.20
65419;DHT22;52027;50.658;14.004;2022-12-10T17:05:38;21.20;36.20
65419;DHT22;52027;50.658;14.004;2022-12-10T17:08:04;21.20;36.20
65419;DHT22;52027;50.658;14.004;2022-12-10T17:10:30;21.21;36.18
65419;DHT22;52027;50.658;14.004;2022-12-10T17:13:15;21.20;36.20
65419;DHT22;52027;50.658;14.004;2022-12-10T17:15:42;21.21;36.23
65419;DHT22;52027;50.658;14.004;2022-12-10T17:18:15;21.21;36.25
65419;DHT22;52027;50.658;14.004;2022-12-10T17:20:40;21.18;36.18
65419;DHT22;52027;50.658;14.004;2022-12-10T17:23:06;21.20;36.18
65419;DHT22;52027;50.658;14.004;2022-12-10T17:25:32;21.21;36.20
65419;DHT22;52027;50.658;14.004;2022-12-10T17:27:57;21.20;36.21
65419;DHT22;52027;50.658;14.004;2022-12-10T17:30:23;21.20;36.19
65419;DHT22;52027;50.658;14.004;2022-12-10T17:32:48;21.18;36.18